Time;durP1;ratioP1;P1;durP2;ratioP2;P2;SDS_P1;SDS_P2;PMS_P1;PMS_P2;Temp;Humidity;BMP_temperature;BMP_pressure;BME280_temperature;BME280_humidity;BME280_pressure;Samples;Min_cycle;Max_cycle;Signal;HPM_P1;HPM_P2
2023/01/13 04:52:37;;;;;;;2.35;0.85;;;6.50;99.90;;;;;;5961334;23;21018;-80
2023/01/13 04:55:06;;;;;;;0.60;0.60;;;6.60;99.90;;;;;;4979834;28;20230;-79
2023/01/13 04:57:34;;;;;;;0.50;0.50;;;6.50;99.90;;;;;;4981097;28;20210;-79
2023/01/13 05:00:00;;;;;;;1.10;0.60;;;6.50;99.90;;;;;;4980192;28;20211;-79
2023/01/13 05:02:27;;;;;;;0.40;0.40;;;6.50;99.90;;;;;;4979118;28;20227;-79
2023/01/13 05:04:54;;;;;;;0.80;0.70;;;6.50;99.90;;;;;;4977022;28;20216;-74
2023/01/13 05:07:21;;;;;;;1.23;0.60;;;6.60;99.90;;;;;;4976190;28;20207;-74
2023/01/13 05:09:47;;;;;;;0.70;0.70;;;6.60;99.90;;;;;;4975589;28;20199;-74
2023/01/13 05:18:00;;;;;;;1.10;0.80;;;6.70;99.90;;;;;;4920480;29;20185;-81
2023/01/13 05:20:27;;;;;;;1.17;0.70;;;6.50;99.90;;;;;;4955781;28;20207;-81
2023/01/13 05:25:39;;;;;;;2.00;0.95;;;6.40;99.90;;;;;;4979412;28;20295;-80
2023/01/13 05:28:08;;;;;;;0.80;0.80;;;6.40;99.90;;;;;;4978278;28;20208;-80
2023/01/13 05:30:41;;;;;;;0.95;0.95;;;6.50;99.90;;;;;;4979001;28;20203;-80
2023/01/13 05:33:08;;;;;;;0.70;0.70;;;6.40;99.90;;;;;;4978950;28;20223;-79
2023/01/13 05:35:37;;;;;;;0.70;0.70;;;6.40;99.90;;;;;;4979917;28;20206;-80
2023/01/13 05:38:04;;;;;;;1.20;1.20;;;6.30;99.90;;;;;;4980606;28;20206;-79
2023/01/13 05:43:23;;;;;;;0.82;0.82;;;6.40;99.90;;;;;;4981029;28;20226;-81
2023/01/13 05:45:52;;;;;;;0.50;0.50;;;6.30;99.90;;;;;;4989045;28;20270;-78
2023/01/13 05:48:21;;;;;;;0.93;0.93;;;6.30;99.90;;;;;;4984336;28;20203;-78
2023/01/13 05:50:49;;;;;;;0.90;0.90;;;6.30;99.90;;;;;;4979308;28;20203;-78
2023/01/13 05:53:16;;;;;;;0.95;0.75;;;6.20;99.90;;;;;;4976503;28;20270;-78
2023/01/13 05:55:44;;;;;;;0.60;0.60;;;6.30;99.90;;;;;;4976693;28;20207;-78
2023/01/13 05:58:11;;;;;;;2.10;1.02;;;6.30;99.90;;;;;;4983211;28;20210;-79
2023/01/13 06:00:39;;;;;;;1.70;1.20;;;6.30;99.90;;;;;;4979784;28;20209;-79
2023/01/13 06:03:06;;;;;;;0.60;0.60;;;6.20;99.90;;;;;;4976487;28;20231;-78
2023/01/13 06:05:34;;;;;;;1.65;0.73;;;6.20;99.90;;;;;;4975840;28;20216;-78
2023/01/13 06:08:02;;;;;;;1.40;0.70;;;6.20;99.90;;;;;;4975493;28;20207;-78
2023/01/13 06:10:30;;;;;;;0.73;0.70;;;6.30;99.90;;;;;;4975840;28;20213;-77
2023/01/13 06:12:56;;;;;;;1.05;0.70;;;6.30;99.90;;;;;;4975719;28;20268;-78
2023/01/13 06:15:23;;;;;;;1.08;0.75;;;6.30;99.90;;;;;;4978967;28;20195;-80
2023/01/13 06:17:52;;;;;;;0.93;0.70;;;6.20;99.90;;;;;;4978606;28;20203;-79
2023/01/13 06:20:19;;;;;;;2.63;0.70;;;6.20;99.90;;;;;;4978503;28;20213;-81
2023/01/13 06:22:48;;;;;;;0.85;0.80;;;6.10;99.90;;;;;;4978547;28;20223;-79
2023/01/13 06:25:22;;;;;;;0.88;0.60;;;6.10;99.90;;;;;;4978508;28;20247;-79
2023/01/13 06:27:50;;;;;;;0.93;0.85;;;6.10;99.90;;;;;;4978988;28;20198;-79
2023/01/13 06:30:17;;;;;;;7.03;3.60;;;6.10;99.90;;;;;;4987731;28;20194;-79
2023/01/13 06:32:46;;;;;;;1.88;1.75;;;6.00;99.90;;;;;;4979128;28;20225;-79
2023/01/13 06:35:20;;;;;;;2.38;1.00;;;6.10;99.90;;;;;;4975285;28;20203;-79
2023/01/13 06:37:49;;;;;;;0.60;0.60;;;6.20;99.90;;;;;;4975071;28;20209;-79
2023/01/13 06:40:17;;;;;;;0.68;0.68;;;6.10;99.90;;;;;;4974921;28;20206;-79
2023/01/13 06:45:30;;;;;;;0.60;0.60;;;6.20;99.90;;;;;;4975514;28;20274;-80
2023/01/13 06:47:58;;;;;;;0.50;0.50;;;6.20;99.90;;;;;;4976741;28;20203;-80
2023/01/13 06:50:26;;;;;;;1.08;0.60;;;6.20;99.90;;;;;;4977259;28;20207;-80
2023/01/13 06:52:53;;;;;;;0.82;0.77;;;6.10;99.90;;;;;;4977354;28;20230;-80
2023/01/13 06:55:20;;;;;;;0.65;0.50;;;6.10;99.90;;;;;;4989678;28;20585;-79
2023/01/13 06:57:49;;;;;;;0.70;0.70;;;6.10;99.90;;;;;;4998633;28;20206;-79
2023/01/13 07:00:16;;;;;;;0.40;0.40;;;6.10;99.90;;;;;;5000037;28;20203;-78
2023/01/13 07:02:43;;;;;;;0.85;0.70;;;6.20;99.90;;;;;;4991743;28;20227;-80
2023/01/13 07:05:09;;;;;;;0.50;0.50;;;6.20;99.90;;;;;;4983310;28;20223;-80
2023/01/13 07:07:37;;;;;;;0.60;0.60;;;6.10;99.90;;;;;;4983463;28;20207;-80
2023/01/13 07:10:07;;;;;;;0.50;0.50;;;6.20;99.90;;;;;;4983242;28;20670;-80
2023/01/13 07:15:17;;;;;;;0.63;0.63;;;6.20;99.90;;;;;;4982588;28;20250;-79
2023/01/13 07:15:19;;;;;;;2.03;1.33;;;6.10;99.90;;;;;;4982234;28;20590;-79
2023/01/13 07:17:46;;;;;;;0.98;0.98;;;6.20;99.90;;;;;;4981798;28;20199;-79
2023/01/13 07:20:13;;;;;;;0.75;0.65;;;6.20;99.90;;;;;;4981329;28;20211;-79
2023/01/13 07:22:41;;;;;;;0.50;0.50;;;6.40;99.90;;;;;;4981450;28;20590;-79
2023/01/13 07:25:09;;;;;;;0.30;0.30;;;6.30;99.90;;;;;;4980406;28;20211;-79
2023/01/13 07:27:36;;;;;;;0.50;0.50;;;6.20;99.90;;;;;;4981240;28;20294;-79
2023/01/13 07:30:03;;;;;;;0.35;0.35;;;6.20;99.90;;;;;;4980488;28;20214;-79
2023/01/13 07:32:31;;;;;;;0.40;0.40;;;6.10;99.90;;;;;;4980650;28;20223;-79
2023/01/13 07:35:03;;;;;;;0.52;0.52;;;6.20;99.90;;;;;;4979858;28;20210;-78
2023/01/13 07:37:30;;;;;;;0.50;0.50;;;6.20;99.90;;;;;;4978026;28;20592;-78
2023/01/13 07:39:58;;;;;;;0.40;0.40;;;6.30;99.90;;;;;;4978554;28;20287;-78
2023/01/13 09:38:14;;;;;;;0.50;0.50;;;6.90;99.90;;;;;;5533875;23;20235;-80
2023/01/13 09:40:42;;;;;;;0.55;0.50;;;7.00;99.90;;;;;;4984440;28;20709;-81
2023/01/13 09:46:42;;;;;;;0.60;0.60;;;6.70;99.90;;;;;;4987514;28;20231;-80
2023/01/13 09:48:58;;;;;;;0.40;0.40;;;6.70;99.90;;;;;;4984028;28;20218;-80
2023/01/13 09:51:30;;;;;;;0.40;0.40;;;6.80;99.90;;;;;;4982729;28;20207;-80
2023/01/13 09:54:06;;;;;;;0.40;0.40;;;6.90;99.90;;;;;;4983654;28;20194;-79
2023/01/13 09:56:33;;;;;;;0.68;0.68;;;7.10;99.90;;;;;;4983145;28;20290;-79
2023/01/13 09:59:00;;;;;;;0.47;0.47;;;7.10;99.90;;;;;;4980033;28;20227;-79
2023/01/13 10:01:31;;;;;;;0.57;0.57;;;7.30;99.90;;;;;;4980851;28;20210;-79
2023/01/13 10:04:02;;;;;;;1.45;0.50;;;7.40;99.90;;;;;;4981368;28;20194;-79
2023/01/13 10:06:35;;;;;;;0.40;0.40;;;7.40;99.90;;;;;;4979410;28;20231;-79
2023/01/13 10:09:03;;;;;;;0.30;0.30;;;7.50;99.90;;;;;;4978385;28;20223;-79
2023/01/13 10:14:26;;;;;;;0.30;0.30;;;7.70;99.90;;;;;;4978313;28;20235;-80
2023/01/13 10:17:04;;;;;;;0.98;0.50;;;7.80;99.90;;;;;;4979853;28;20268;-80
2023/01/13 10:19:38;;;;;;;0.40;0.40;;;7.80;99.90;;;;;;4979453;28;20662;-80
2023/01/13 10:22:24;;;;;;;0.40;0.40;;;7.80;99.90;;;;;;4979720;28;20187;-80
2023/01/13 10:25:19;;;;;;;0.40;0.40;;;7.90;99.90;;;;;;4980211;28;20192;-80
2023/01/13 10:27:48;;;;;;;0.60;0.60;;;7.90;99.90;;;;;;4980115;28;20306;-80
2023/01/13 10:30:21;;;;;;;0.50;0.50;;;8.00;99.90;;;;;;4980181;28;20203;-79
2023/01/13 10:32:52;;;;;;;0.47;0.40;;;8.10;99.90;;;;;;4985113;28;20558;-79
2023/01/13 10:35:49;;;;;;;0.45;0.45;;;8.00;99.90;;;;;;4987656;28;20207;-79
2023/01/13 10:38:18;;;;;;;1.33;0.60;;;7.90;99.90;;;;;;4978883;28;20223;-71
2023/01/13 10:40:51;;;;;;;0.50;0.50;;;8.00;99.90;;;;;;4978204;28;20218;-72
2023/01/13 10:43:18;;;;;;;3.03;0.43;;;7.90;99.90;;;;;;4978811;28;20206;-72
2023/01/13 10:45:55;;;;;;;0.40;0.40;;;7.90;99.90;;;;;;4978507;28;20230;-72
2023/01/13 10:48:21;;;;;;;0.45;0.40;;;8.00;99.90;;;;;;4978783;28;20223;-71
2023/01/13 10:50:48;;;;;;;0.55;0.40;;;8.00;99.90;;;;;;4978779;28;20199;-72
2023/01/13 10:53:18;;;;;;;0.30;0.30;;;8.00;99.90;;;;;;4978212;28;20210;-74
2023/01/13 10:56:00;;;;;;;0.73;0.40;;;8.10;99.90;;;;;;4978282;28;20578;-74
2023/01/13 10:58:27;;;;;;;2.60;0.50;;;8.10;99.90;;;;;;4978305;28;20223;-73
2023/01/13 11:01:02;;;;;;;4.32;0.52;;;8.10;99.90;;;;;;4978185;28;20208;-73
2023/01/13 11:03:39;;;;;;;0.45;0.45;;;8.10;99.90;;;;;;4977831;28;20302;-72
2023/01/13 11:06:06;;;;;;;1.55;0.40;;;8.20;99.90;;;;;;4978051;28;20208;-74
2023/01/13 11:08:43;;;;;;;0.50;0.50;;;8.30;99.90;;;;;;4977762;28;20593;-72
2023/01/13 11:11:27;;;;;;;0.50;0.50;;;8.30;99.90;;;;;;4978092;28;20183;-73
2023/01/13 11:16:48;;;;;;;0.65;0.65;;;8.60;99.90;;;;;;4978213;28;20179;-73
2023/01/13 11:19:18;;;;;;;0.85;0.50;;;8.60;99.90;;;;;;4978492;28;20223;-77
2023/01/13 11:21:53;;;;;;;0.38;0.38;;;8.60;99.90;;;;;;4978372;28;20215;-77
2023/01/13 11:24:27;;;;;;;0.85;0.50;;;8.50;99.90;;;;;;4978131;28;20194;-76
2023/01/13 11:27:00;;;;;;;0.40;0.40;;;8.40;99.90;;;;;;4977987;28;20207;-77
2023/01/13 11:29:34;;;;;;;0.47;0.47;;;8.30;99.90;;;;;;4977983;28;20194;-76
2023/01/13 11:32:09;;;;;;;0.30;0.30;;;8.20;99.90;;;;;;4978051;28;20188;-77
2023/01/13 11:34:37;;;;;;;0.52;0.52;;;8.20;99.90;;;;;;4978147;28;20195;-77
2023/01/13 11:37:12;;;;;;;0.40;0.40;;;8.20;99.90;;;;;;4978086;28;20570;-75
2023/01/13 11:39:47;;;;;;;0.55;0.40;;;8.10;99.90;;;;;;4978481;28;20554;-77
2023/01/13 11:42:23;;;;;;;0.90;0.38;;;8.20;99.90;;;;;;4977452;28;20217;-76
2023/01/13 11:45:04;;;;;;;1.20;0.50;;;8.30;99.90;;;;;;4977209;28;20211;-76
2023/01/13 11:47:33;;;;;;;0.30;0.30;;;8.50;99.90;;;;;;4977434;28;20307;-78
2023/01/13 11:50:01;;;;;;;0.60;0.60;;;8.50;99.90;;;;;;4977611;28;20285;-77
2023/01/13 11:52:38;;;;;;;1.20;0.50;;;8.50;99.90;;;;;;4977239;28;20218;-76
2023/01/13 11:55:16;;;;;;;0.40;0.40;;;8.50;99.90;;;;;;4977259;28;20639;-77
2023/01/13 11:58:06;;;;;;;2.03;0.55;;;8.50;99.90;;;;;;4977772;28;20230;-76
2023/01/13 12:00:43;;;;;;;0.38;0.38;;;8.50;99.90;;;;;;4979472;28;20198;-76
2023/01/13 12:03:24;;;;;;;0.40;0.40;;;8.50;99.90;;;;;;4981482;28;20216;-77
2023/01/13 12:06:09;;;;;;;0.75;0.50;;;8.50;99.90;;;;;;4979353;28;20196;-77
2023/01/13 12:09:03;;;;;;;0.50;0.45;;;8.50;99.90;;;;;;4981750;28;20235;-76
2023/01/13 12:12:18;;;;;;;0.30;0.30;;;8.50;99.90;;;;;;4965104;28;20215;-76
2023/01/13 12:14:38;;;;;;;1.65;0.65;;;8.50;99.90;;;;;;4977159;28;20226;-76
2023/01/13 12:17:16;;;;;;;0.47;0.40;;;8.40;99.90;;;;;;4977850;28;20294;-75
2023/01/13 12:19:48;;;;;;;0.52;0.52;;;8.60;99.90;;;;;;4977986;28;20183;-76
2023/01/13 12:22:20;;;;;;;0.70;0.40;;;8.60;99.90;;;;;;4977568;28;20196;-76
2023/01/13 12:24:53;;;;;;;5.47;1.30;;;8.80;99.90;;;;;;4977515;28;20184;-77
2023/01/13 12:27:30;;;;;;;0.65;0.52;;;9.00;99.90;;;;;;4978199;28;20218;-77
2023/01/13 12:29:59;;;;;;;1.73;0.45;;;9.10;99.90;;;;;;4978849;28;20188;-78
2023/01/13 12:32:35;;;;;;;0.73;0.50;;;9.20;99.90;;;;;;4977962;28;20207;-78
2023/01/13 12:35:22;;;;;;;0.40;0.40;;;9.40;99.90;;;;;;4979491;28;20191;-78
2023/01/13 12:37:56;;;;;;;0.75;0.50;;;9.50;99.90;;;;;;4981098;28;20306;-78
2023/01/13 12:40:37;;;;;;;0.47;0.47;;;9.50;99.90;;;;;;4983308;28;20218;-78
2023/01/13 12:46:32;;;;;;;0.60;0.60;;;9.60;99.90;;;;;;4980914;28;20199;-78
2023/01/13 12:49:17;;;;;;;0.95;0.43;;;9.50;99.90;;;;;;4980690;28;20227;-79
2023/01/13 12:52:11;;;;;;;1.08;0.47;;;9.50;99.90;;;;;;4980748;28;20196;-78
2023/01/13 12:55:08;;;;;;;0.55;0.55;;;9.20;99.90;;;;;;4978081;28;20706;-77
2023/01/13 12:57:36;;;;;;;0.50;0.50;;;9.10;99.90;;;;;;4976406;28;20257;-76
2023/01/13 13:00:21;;;;;;;1.10;0.50;;;9.00;99.90;;;;;;4977029;28;20226;-77
2023/01/13 13:03:21;;;;;;;0.80;0.80;;;8.90;99.90;;;;;;4979280;28;20191;-77
2023/01/13 13:05:56;;;;;;;0.82;0.50;;;8.80;99.90;;;;;;4975416;28;20214;-78
2023/01/13 13:08:37;;;;;;;0.80;0.60;;;8.70;99.90;;;;;;4979213;28;20234;-78
2023/01/13 13:14:11;;;;;;;0.52;0.52;;;8.50;99.90;;;;;;4985339;28;20218;-78
2023/01/13 13:16:59;;;;;;;1.55;0.57;;;8.40;99.90;;;;;;4984320;28;20215;-78
2023/01/13 13:19:46;;;;;;;0.80;0.38;;;8.60;99.90;;;;;;4984068;28;20238;-78
2023/01/13 13:22:37;;;;;;;0.57;0.40;;;8.70;99.90;;;;;;4983212;28;20198;-77
2023/01/13 13:25:21;;;;;;;1.15;0.50;;;8.60;99.90;;;;;;4979550;28;20295;-76
2023/01/13 13:28:12;;;;;;;0.60;0.60;;;8.50;99.90;;;;;;4976797;28;20238;-76
2023/01/13 13:30:44;;;;;;;0.52;0.50;;;8.60;99.90;;;;;;4977059;28;20632;-76
2023/01/13 13:33:29;;;;;;;0.63;0.47;;;8.50;99.90;;;;;;4975826;28;20192;-76
2023/01/13 13:36:08;;;;;;;3.70;0.70;;;8.50;99.90;;;;;;4975639;28;20278;-76
2023/01/13 13:47:11;;;;;;;1.80;1.05;;;8.50;99.90;;;;;;4975653;28;20222;-76
2023/01/13 13:49:42;;;;;;;0.82;0.82;;;8.50;99.90;;;;;;4975489;28;20203;-76
2023/01/13 13:52:17;;;;;;;0.90;0.90;;;8.60;99.90;;;;;;4975207;28;20199;-76
2023/01/13 13:54:48;;;;;;;0.88;0.70;;;8.60;99.90;;;;;;4975242;28;20191;-76
2023/01/13 13:57:19;;;;;;;0.80;0.80;;;8.70;99.90;;;;;;4975396;28;20211;-76
2023/01/13 13:59:53;;;;;;;1.75;0.60;;;8.60;99.90;;;;;;4975153;28;20663;-76
2023/01/13 14:02:27;;;;;;;0.77;0.60;;;8.70;99.90;;;;;;4975374;28;20188;-76
2023/01/13 14:05:07;;;;;;;0.65;0.65;;;8.60;99.90;;;;;;4975108;28;20211;-76
2023/01/13 14:07:42;;;;;;;0.38;0.38;;;8.60;99.90;;;;;;4974543;28;20225;-75
2023/01/13 14:10:18;;;;;;;0.40;0.40;;;8.60;99.90;;;;;;4978021;28;20187;-75
2023/01/13 14:12:46;;;;;;;2.15;0.50;;;8.30;99.90;;;;;;4980189;28;20194;-75
2023/01/13 14:15:26;;;;;;;0.30;0.30;;;8.00;99.90;;;;;;4979813;28;20214;-76
2023/01/13 14:17:54;;;;;;;0.50;0.50;;;7.80;99.90;;;;;;4974660;28;20742;-76
2023/01/13 14:20:20;;;;;;;0.98;0.98;;;7.60;99.90;;;;;;4975000;28;20226;-76
2023/01/13 14:22:48;;;;;;;0.60;0.60;;;7.40;99.90;;;;;;4975108;28;20199;-76
2023/01/13 14:25:35;;;;;;;0.80;0.80;;;7.20;99.90;;;;;;4974694;28;20667;-76
2023/01/13 14:28:19;;;;;;;2.50;0.82;;;7.00;99.90;;;;;;4974451;28;20238;-76
2023/01/13 14:30:46;;;;;;;0.50;0.50;;;6.80;99.90;;;;;;4975359;28;20188;-76
2023/01/13 14:33:17;;;;;;;0.80;0.50;;;6.70;99.90;;;;;;4974583;28;20203;-76
2023/01/13 14:36:20;;;;;;;0.80;0.50;;;6.70;99.90;;;;;;4974804;28;20238;-76
2023/01/13 14:38:48;;;;;;;0.40;0.40;;;6.60;99.90;;;;;;4974752;28;20234;-76
2023/01/13 14:41:23;;;;;;;1.27;0.70;;;6.60;99.90;;;;;;4975256;28;20219;-76
2023/01/13 14:43:54;;;;;;;0.50;0.50;;;6.60;99.90;;;;;;4974636;28;20635;-76
2023/01/13 14:46:23;;;;;;;1.17;0.70;;;6.60;99.90;;;;;;4974693;28;20716;-76
2023/01/13 14:48:59;;;;;;;0.50;0.50;;;6.60;99.90;;;;;;4974361;28;20286;-76
2023/01/13 14:51:27;;;;;;;1.13;0.60;;;6.40;99.90;;;;;;4974820;28;20191;-76
2023/01/13 14:53:56;;;;;;;3.25;0.70;;;6.20;99.90;;;;;;4974259;28;20207;-76
2023/01/13 14:56:46;;;;;;;0.60;0.60;;;6.10;99.90;;;;;;4974596;28;20239;-77
2023/01/13 14:59:50;;;;;;;0.60;0.57;;;6.00;99.90;;;;;;4974814;28;20227;-76
2023/01/13 15:02:44;;;;;;;0.77;0.50;;;5.70;99.90;;;;;;4933704;29;20641;-76
2023/01/13 15:05:30;;;;;;;1.77;0.60;;;5.60;99.90;;;;;;4934073;29;20213;-76
2023/01/13 15:07:59;;;;;;;0.75;0.75;;;5.60;99.90;;;;;;4966117;28;20235;-76
2023/01/13 15:10:29;;;;;;;1.52;0.70;;;5.50;99.90;;;;;;4974672;28;20207;-76
2023/01/13 15:12:59;;;;;;;0.95;0.70;;;5.60;99.90;;;;;;4974451;28;20234;-76
2023/01/13 15:15:29;;;;;;;1.80;0.60;;;5.50;99.90;;;;;;4974921;28;20215;-76
2023/01/13 15:17:56;;;;;;;1.60;0.70;;;5.50;99.90;;;;;;4974581;28;20734;-75
2023/01/13 15:20:24;;;;;;;1.15;0.68;;;5.50;99.90;;;;;;4977701;28;20210;-75
2023/01/13 15:23:10;;;;;;;0.63;0.60;;;5.60;99.90;;;;;;4978052;28;20199;-76
2023/01/13 15:25:39;;;;;;;4.28;0.85;;;5.60;99.90;;;;;;4976062;28;20342;-76
2023/01/13 15:28:14;;;;;;;1.02;0.47;;;5.60;99.90;;;;;;4985466;28;20228;-74
2023/01/13 15:30:40;;;;;;;1.10;0.65;;;5.60;99.90;;;;;;4989969;28;20191;-74
2023/01/13 15:33:10;;;;;;;0.47;0.47;;;5.60;99.90;;;;;;4991454;28;20395;-74
2023/01/13 15:35:39;;;;;;;1.10;0.40;;;5.60;99.90;;;;;;4992954;28;20192;-74
2023/01/13 15:38:10;;;;;;;1.23;0.80;;;5.50;99.90;;;;;;4990638;28;20220;-74
2023/01/13 15:40:37;;;;;;;0.55;0.55;;;5.40;99.90;;;;;;4982153;28;20222;-74
2023/01/13 15:48:34;;;;;;;0.60;0.60;;;5.30;99.90;;;;;;4977439;28;20234;-74
2023/01/13 15:51:00;;;;;;;0.50;0.50;;;5.20;99.90;;;;;;4977281;28;20199;-74
2023/01/13 15:53:27;;;;;;;0.93;0.93;;;5.20;99.90;;;;;;4977512;28;20195;-75
2023/01/13 15:55:57;;;;;;;3.22;0.95;;;5.20;99.90;;;;;;4977083;28;20203;-75
2023/01/13 15:58:27;;;;;;;0.60;0.60;;;5.30;99.90;;;;;;4977596;28;20220;-75
2023/01/13 16:00:55;;;;;;;1.50;0.75;;;5.20;99.90;;;;;;4977330;28;20208;-75
2023/01/13 16:03:22;;;;;;;0.60;0.60;;;5.10;99.90;;;;;;4977226;28;20192;-75
2023/01/13 16:05:48;;;;;;;1.40;0.88;;;5.00;99.90;;;;;;4977253;28;20211;-75
2023/01/13 16:08:16;;;;;;;2.55;2.35;;;4.90;99.90;;;;;;4977757;28;20231;-75
2023/01/13 16:10:43;;;;;;;13.57;12.18;;;4.80;99.90;;;;;;4977031;28;20218;-76
2023/01/13 16:13:10;;;;;;;8.05;7.32;;;4.60;99.90;;;;;;4976800;28;20707;-76
2023/01/13 16:15:41;;;;;;;8.35;7.25;;;4.50;99.90;;;;;;4977336;28;20199;-75
2023/01/13 16:18:16;;;;;;;6.80;5.57;;;4.40;99.90;;;;;;4977333;28;20234;-75
2023/01/13 16:20:43;;;;;;;8.00;5.53;;;4.20;99.90;;;;;;4977076;28;20187;-75
2023/01/13 16:23:10;;;;;;;6.95;5.20;;;4.10;99.90;;;;;;4976912;28;20239;-75
2023/01/13 16:25:37;;;;;;;7.53;5.18;;;4.00;99.90;;;;;;4976864;28;20187;-74
2023/01/13 16:28:04;;;;;;;6.00;4.93;;;3.90;99.90;;;;;;4977486;28;20230;-75
2023/01/13 16:30:32;;;;;;;8.45;5.65;;;3.90;99.90;;;;;;4976469;28;20214;-75
2023/01/13 16:32:59;;;;;;;10.00;5.82;;;3.80;99.90;;;;;;4976808;28;20203;-75
2023/01/13 16:35:28;;;;;;;5.78;4.70;;;3.70;99.90;;;;;;4976567;28;20210;-75
2023/01/13 16:37:57;;;;;;;6.50;3.55;;;3.70;99.90;;;;;;4976405;28;20223;-75
2023/01/13 16:40:26;;;;;;;3.75;3.00;;;3.70;99.90;;;;;;4976358;28;20211;-75
2023/01/13 16:42:53;;;;;;;4.32;2.78;;;3.70;99.90;;;;;;4976408;28;20199;-76
2023/01/13 16:45:20;;;;;;;3.05;2.67;;;3.60;99.90;;;;;;4976515;28;20232;-75
2023/01/13 16:47:47;;;;;;;2.75;2.55;;;3.60;99.90;;;;;;4976208;28;20230;-75
2023/01/13 16:50:23;;;;;;;3.53;3.22;;;3.60;99.90;;;;;;4976128;28;20555;-75
2023/01/13 16:52:51;;;;;;;2.70;2.47;;;3.60;99.90;;;;;;4976922;28;20191;-75
2023/01/13 16:55:18;;;;;;;4.20;3.45;;;3.60;99.90;;;;;;4976607;28;20207;-75
2023/01/13 16:57:45;;;;;;;6.63;3.10;;;3.60;99.90;;;;;;4976383;28;20223;-74
2023/01/13 17:00:13;;;;;;;5.35;3.47;;;3.50;99.90;;;;;;4976374;28;20215;-74
2023/01/13 17:02:40;;;;;;;8.32;4.03;;;3.50;99.90;;;;;;4976521;28;20190;-74
2023/01/13 17:05:10;;;;;;;4.70;2.70;;;3.50;99.90;;;;;;4976012;28;20662;-74
2023/01/13 17:07:36;;;;;;;2.55;2.35;;;3.50;99.90;;;;;;4976096;28;20228;-75
2023/01/13 17:10:05;;;;;;;2.88;2.53;;;3.50;99.90;;;;;;4976303;28;20203;-75
2023/01/13 17:12:32;;;;;;;4.72;3.60;;;3.50;99.90;;;;;;4976306;28;20203;-75
2023/01/13 17:14:59;;;;;;;6.85;4.30;;;3.50;99.90;;;;;;4976147;28;20207;-75
2023/01/13 17:17:28;;;;;;;5.57;3.58;;;3.50;99.90;;;;;;4975948;28;20223;-75
2023/01/13 17:19:55;;;;;;;7.38;4.28;;;3.40;99.90;;;;;;4976040;28;20229;-77
2023/01/13 17:22:22;;;;;;;3.22;2.92;;;3.40;99.90;;;;;;4975705;28;20567;-74
2023/01/13 17:24:49;;;;;;;12.20;5.05;;;3.30;99.90;;;;;;4975887;28;20210;-74
2023/01/13 17:27:19;;;;;;;7.93;5.22;;;3.30;99.90;;;;;;4975429;28;20667;-74
2023/01/13 17:29:46;;;;;;;7.68;4.97;;;3.20;99.90;;;;;;4975586;28;20184;-74
2023/01/13 17:32:18;;;;;;;6.18;4.47;;;3.20;99.90;;;;;;4975719;28;20188;-76
2023/01/13 17:34:45;;;;;;;3.38;3.20;;;3.20;99.90;;;;;;4976107;28;20191;-76
2023/01/13 17:37:13;;;;;;;2.80;2.60;;;3.20;99.90;;;;;;4975447;28;20701;-75
2023/01/13 17:39:42;;;;;;;2.45;2.28;;;3.20;99.90;;;;;;4975831;28;20266;-74
2023/01/13 17:42:10;;;;;;;3.35;2.75;;;3.20;99.90;;;;;;4974492;28;20632;-74
2023/01/13 17:44:38;;;;;;;2.53;2.33;;;3.30;99.90;;;;;;4975483;28;20211;-75
2023/01/13 17:47:05;;;;;;;1.58;1.30;;;3.30;99.90;;;;;;4975145;28;20203;-77
2023/01/13 17:49:31;;;;;;;1.83;1.73;;;3.40;99.90;;;;;;4975206;28;20223;-77
2023/01/13 17:51:58;;;;;;;5.30;3.75;;;3.40;99.90;;;;;;4975042;28;20663;-77
2023/01/13 17:54:25;;;;;;;4.93;4.25;;;3.50;99.90;;;;;;4976046;28;20211;-77
2023/01/13 17:56:51;;;;;;;3.95;3.42;;;3.50;99.90;;;;;;4975701;28;20226;-76
2023/01/13 17:59:20;;;;;;;4.43;3.15;;;3.50;99.90;;;;;;4975399;28;20227;-77
2023/01/13 18:01:49;;;;;;;5.93;3.53;;;3.50;99.90;;;;;;4976143;28;20207;-77
2023/01/13 18:04:18;;;;;;;5.85;3.70;;;3.60;99.90;;;;;;4976163;28;20207;-77
2023/01/13 18:06:45;;;;;;;2.33;2.20;;;3.60;99.90;;;;;;4976327;28;20218;-78
2023/01/13 18:09:12;;;;;;;8.00;2.30;;;3.70;99.90;;;;;;4983220;28;20230;-78
2023/01/13 18:11:39;;;;;;;3.35;1.80;;;3.70;99.90;;;;;;4985218;28;20211;-78
2023/01/13 18:14:08;;;;;;;3.85;1.92;;;3.70;99.90;;;;;;4983901;28;20215;-78
2023/01/13 18:16:35;;;;;;;3.45;2.05;;;3.90;99.90;;;;;;4979153;28;20219;-78
2023/01/13 18:27:26;;;;;;;1.80;1.50;;;4.10;99.90;;;;;;4925042;28;20260;-78
2023/01/13 18:29:57;;;;;;;1.92;1.40;;;4.10;99.90;;;;;;4983225;28;20231;-78
2023/01/13 18:32:27;;;;;;;1.63;1.52;;;4.10;99.90;;;;;;4979537;28;20553;-77
2023/01/13 18:34:56;;;;;;;0.70;0.70;;;4.10;99.90;;;;;;4977258;28;20283;-76
2023/01/13 18:37:22;;;;;;;0.60;0.60;;;4.10;99.90;;;;;;4976675;28;20203;-76
2023/01/13 18:39:49;;;;;;;2.47;0.70;;;4.10;99.90;;;;;;4975024;28;20196;-77
2023/01/13 18:45:00;;;;;;;1.85;0.80;;;4.00;99.90;;;;;;4980476;28;20195;-78
2023/01/13 18:47:30;;;;;;;1.00;1.00;;;4.00;99.90;;;;;;4979338;28;20703;-79
2023/01/13 18:49:58;;;;;;;0.70;0.70;;;4.00;99.90;;;;;;4980578;28;20226;-77
2023/01/13 18:52:25;;;;;;;1.42;0.80;;;4.00;99.90;;;;;;4978631;28;20210;-75
2023/01/13 18:54:52;;;;;;;0.63;0.60;;;4.10;99.90;;;;;;4982989;28;20199;-77
2023/01/13 18:57:20;;;;;;;0.90;0.70;;;4.00;99.90;;;;;;4979525;28;20214;-76
2023/01/13 18:59:46;;;;;;;0.77;0.77;;;4.10;99.90;;;;;;4982912;28;20195;-78
2023/01/13 19:02:15;;;;;;;0.80;0.80;;;4.10;99.90;;;;;;4984660;28;20205;-77
2023/01/13 19:04:43;;;;;;;2.10;1.20;;;4.10;99.90;;;;;;4981083;28;20203;-76
2023/01/13 19:07:12;;;;;;;1.90;0.90;;;4.10;99.90;;;;;;4979147;28;20216;-77
2023/01/13 19:09:40;;;;;;;1.88;0.88;;;4.10;99.90;;;;;;4978476;28;20223;-78
2023/01/13 19:12:09;;;;;;;0.90;0.90;;;4.10;99.90;;;;;;4989287;28;20282;-77
2023/01/13 19:14:37;;;;;;;3.50;1.10;;;4.10;99.90;;;;;;4989860;28;20240;-77
2023/01/13 19:17:08;;;;;;;0.82;0.82;;;4.00;99.90;;;;;;4989131;28;20203;-77
2023/01/13 19:19:37;;;;;;;1.75;0.60;;;4.00;99.90;;;;;;4983203;28;20183;-77
2023/01/13 19:22:04;;;;;;;0.60;0.60;;;4.20;99.90;;;;;;4980091;28;20207;-76
2023/01/13 19:24:32;;;;;;;0.73;0.70;;;4.00;99.90;;;;;;4978374;28;20211;-76
2023/01/13 19:26:59;;;;;;;0.70;0.70;;;4.00;99.90;;;;;;4978673;28;20215;-75
2023/01/13 19:29:26;;;;;;;0.63;0.60;;;3.90;99.90;;;;;;4977916;28;20244;-75
2023/01/13 19:31:52;;;;;;;1.27;0.70;;;3.60;99.90;;;;;;4978230;28;20207;-76
2023/01/13 19:34:19;;;;;;;0.68;0.60;;;3.50;99.90;;;;;;4978249;28;20207;-76
2023/01/13 19:36:46;;;;;;;1.55;0.65;;;3.40;99.90;;;;;;4978607;28;20203;-76
2023/01/13 19:39:12;;;;;;;2.05;1.00;;;3.30;99.90;;;;;;4978056;28;20215;-77
2023/01/13 19:47:09;;;;;;;0.85;0.80;;;3.10;99.90;;;;;;4977927;28;20248;-76
2023/01/13 19:49:35;;;;;;;1.75;0.60;;;3.00;99.90;;;;;;4977532;28;20694;-75
2023/01/13 19:52:02;;;;;;;2.22;0.95;;;3.00;99.90;;;;;;4977578;28;20199;-75
2023/01/13 19:54:29;;;;;;;0.60;0.60;;;2.90;99.90;;;;;;4977642;28;20214;-74
2023/01/13 19:56:57;;;;;;;1.75;0.70;;;2.90;99.90;;;;;;4977815;28;20212;-74
2023/01/13 19:59:27;;;;;;;0.70;0.70;;;2.80;99.90;;;;;;4977657;28;20223;-74
2023/01/13 20:01:55;;;;;;;1.25;1.15;;;2.90;99.90;;;;;;4977578;28;20195;-73
2023/01/13 20:04:28;;;;;;;1.40;1.08;;;2.90;99.90;;;;;;4976730;28;20207;-74
2023/01/13 20:06:55;;;;;;;0.93;0.93;;;2.90;99.90;;;;;;4978100;28;20183;-75
2023/01/13 20:09:22;;;;;;;0.90;0.90;;;2.90;99.90;;;;;;4977465;28;20713;-77
2023/01/13 20:11:51;;;;;;;2.45;1.40;;;3.00;99.90;;;;;;4977969;28;20219;-75
2023/01/13 20:14:19;;;;;;;4.68;2.53;;;3.10;99.90;;;;;;4977716;28;20223;-75
2023/01/13 20:16:46;;;;;;;1.50;1.40;;;3.10;99.90;;;;;;4977764;28;20206;-76
2023/01/13 20:19:13;;;;;;;1.65;1.00;;;3.10;99.90;;;;;;4977513;28;20238;-75
2023/01/13 20:21:41;;;;;;;3.60;0.82;;;3.10;99.90;;;;;;4977160;28;20207;-75
2023/01/13 20:24:16;;;;;;;0.70;0.68;;;3.00;99.90;;;;;;4977678;28;20204;-75
2023/01/13 20:26:43;;;;;;;1.42;0.90;;;3.10;99.90;;;;;;4977318;28;20635;-76
2023/01/13 20:29:10;;;;;;;0.77;0.77;;;3.10;99.90;;;;;;4977201;28;20238;-75
2023/01/13 20:31:38;;;;;;;1.20;1.10;;;3.10;99.90;;;;;;4977291;28;20211;-74
2023/01/13 20:34:05;;;;;;;0.80;0.80;;;3.00;99.90;;;;;;4977273;28;20215;-75
2023/01/13 20:36:36;;;;;;;0.93;0.80;;;3.00;99.90;;;;;;4977302;28;20568;-74
2023/01/13 20:39:07;;;;;;;3.40;0.93;;;3.00;99.90;;;;;;4977710;28;20286;-75
2023/01/13 20:44:29;;;;;;;1.40;1.30;;;2.90;99.90;;;;;;4919009;29;20224;-74
2023/01/13 20:46:57;;;;;;;1.70;1.20;;;2.80;99.90;;;;;;4962676;28;20212;-76
2023/01/13 20:49:25;;;;;;;2.78;1.27;;;2.70;99.90;;;;;;4976838;28;20227;-74
2023/01/13 20:51:53;;;;;;;1.27;1.20;;;2.60;99.90;;;;;;4976456;28;20210;-76
2023/01/13 20:54:20;;;;;;;1.52;1.40;;;2.60;99.90;;;;;;4976780;28;20697;-75
2023/01/13 20:56:47;;;;;;;1.30;1.20;;;2.50;99.90;;;;;;4976360;28;20212;-75
2023/01/13 20:59:14;;;;;;;4.63;1.05;;;2.40;99.90;;;;;;4976665;28;20730;-75
2023/01/13 21:01:41;;;;;;;1.58;1.48;;;2.30;99.90;;;;;;4978218;28;20203;-75
2023/01/13 21:04:09;;;;;;;1.40;1.10;;;2.20;99.90;;;;;;4985739;28;20184;-75
2023/01/13 21:06:36;;;;;;;1.65;1.30;;;2.00;99.90;;;;;;4997113;28;20215;-75
2023/01/13 21:09:03;;;;;;;1.63;1.52;;;2.00;99.90;;;;;;4999353;28;20236;-75